sensor_id;sensor_type;location;lat;lon;timestamp;pressure;altitude;pressure_sealevel;temperature
58307;BMP280;44116;50.884;4.768;2022-11-15T00:01:47;100510.0;;;9.5
58307;BMP280;44116;50.884;4.768;2022-11-15T00:03:50;100510.0;;;9.6
58307;BMP280;44116;50.884;4.768;2022-11-15T00:05:47;100500.0;;;9.6
58307;BMP280;44116;50.884;4.768;2022-11-15T00:07:47;100500.0;;;9.7
58307;BMP280;44116;50.884;4.768;2022-11-15T00:09:46;100510.0;;;9.7
58307;BMP280;44116;50.884;4.768;2022-11-15T00:11:45;100500.0;;;9.7
58307;BMP280;44116;50.884;4.768;2022-11-15T00:13:45;100500.0;;;9.8
58307;BMP280;44116;50.884;4.768;2022-11-15T00:15:45;100500.0;;;9.7
58307;BMP280;44116;50.884;4.768;2022-11-15T00:17:47;100490.0;;;9.7
58307;BMP280;44116;50.884;4.768;2022-11-15T00:19:44;100500.0;;;9.7
58307;BMP280;44116;50.884;4.768;2022-11-15T00:21:44;100500.0;;;9.7
58307;BMP280;44116;50.884;4.768;2022-11-15T00:23:44;100500.0;;;9.8
58307;BMP280;44116;50.884;4.768;2022-11-15T00:25:43;100500.0;;;9.8
58307;BMP280;44116;50.884;4.768;2022-11-15T00:27:43;100500.0;;;9.8
58307;BMP280;44116;50.884;4.768;2022-11-15T00:29:43;100500.0;;;9.8
58307;BMP280;44116;50.884;4.768;2022-11-15T00:31:43;100490.0;;;9.8
58307;BMP280;44116;50.884;4.768;2022-11-15T00:33:43;100490.0;;;9.8
58307;BMP280;44116;50.884;4.768;2022-11-15T00:35:42;100490.0;;;9.8
58307;BMP280;44116;50.884;4.768;2022-11-15T00:37:42;100500.0;;;9.9
58307;BMP280;44116;50.884;4.768;2022-11-15T00:43:41;100500.0;;;9.9
58307;BMP280;44116;50.884;4.768;2022-11-15T00:45:41;100500.0;;;9.9
58307;BMP280;44116;50.884;4.768;2022-11-15T00:47:40;100500.0;;;10.0
58307;BMP280;44116;50.884;4.768;2022-11-15T00:49:40;100500.0;;;9.9
58307;BMP280;44116;50.884;4.768;2022-11-15T00:51:40;100510.0;;;10.0
58307;BMP280;44116;50.884;4.768;2022-11-15T00:53:40;100510.0;;;10.1
58307;BMP280;44116;50.884;4.768;2022-11-15T00:55:39;100500.0;;;10.0
58307;BMP280;44116;50.884;4.768;2022-11-15T00:57:39;100510.0;;;10.0
58307;BMP280;44116;50.884;4.768;2022-11-15T00:59:39;100510.0;;;10.0
58307;BMP280;44116;50.884;4.768;2022-11-15T01:01:38;100510.0;;;10.0
58307;BMP280;44116;50.884;4.768;2022-11-15T01:03:39;100510.0;;;10.1
58307;BMP280;44116;50.884;4.768;2022-11-15T01:05:38;100510.0;;;10.0
58307;BMP280;44116;50.884;4.768;2022-11-15T01:07:38;100510.0;;;10.1
58307;BMP280;44116;50.884;4.768;2022-11-15T01:09:38;100510.0;;;10.1
58307;BMP280;44116;50.884;4.768;2022-11-15T01:11:37;100510.0;;;10.1
58307;BMP280;44116;50.884;4.768;2022-11-15T01:13:38;100510.0;;;10.1
58307;BMP280;44116;50.884;4.768;2022-11-15T01:15:38;100510.0;;;10.1
58307;BMP280;44116;50.884;4.768;2022-11-15T01:17:36;100500.0;;;10.1
58307;BMP280;44116;50.884;4.768;2022-11-15T01:19:36;100510.0;;;10.2
58307;BMP280;44116;50.884;4.768;2022-11-15T01:21:36;100500.0;;;10.1
58307;BMP280;44116;50.884;4.768;2022-11-15T01:23:36;100500.0;;;10.1
58307;BMP280;44116;50.884;4.768;2022-11-15T01:25:35;100500.0;;;10.2
58307;BMP280;44116;50.884;4.768;2022-11-15T01:27:35;100500.0;;;10.2
58307;BMP280;44116;50.884;4.768;2022-11-15T01:29:35;100500.0;;;10.2
58307;BMP280;44116;50.884;4.768;2022-11-15T01:31:35;100500.0;;;10.2
58307;BMP280;44116;50.884;4.768;2022-11-15T01:33:35;100490.0;;;10.2
58307;BMP280;44116;50.884;4.768;2022-11-15T01:35:38;100490.0;;;10.3
58307;BMP280;44116;50.884;4.768;2022-11-15T01:37:34;100500.0;;;10.2
58307;BMP280;44116;50.884;4.768;2022-11-15T01:39:34;100500.0;;;10.3
58307;BMP280;44116;50.884;4.768;2022-11-15T01:41:33;100490.0;;;10.2
58307;BMP280;44116;50.884;4.768;2022-11-15T01:43:34;100490.0;;;10.3
58307;BMP280;44116;50.884;4.768;2022-11-15T01:45:33;100490.0;;;10.3
58307;BMP280;44116;50.884;4.768;2022-11-15T01:47:34;100480.0;;;10.3
58307;BMP280;44116;50.884;4.768;2022-11-15T01:51:32;100490.0;;;10.3
58307;BMP280;44116;50.884;4.768;2022-11-15T01:53:32;100480.0;;;10.4
58307;BMP280;44116;50.884;4.768;2022-11-15T01:55:31;100480.0;;;10.4
58307;BMP280;44116;50.884;4.768;2022-11-15T01:57:31;100490.0;;;10.4
58307;BMP280;44116;50.884;4.768;2022-11-15T01:59:31;100490.0;;;10.4
58307;BMP280;44116;50.884;4.768;2022-11-15T02:01:31;100490.0;;;10.4
58307;BMP280;44116;50.884;4.768;2022-11-15T02:03:32;100490.0;;;10.4
58307;BMP280;44116;50.884;4.768;2022-11-15T02:05:30;100490.0;;;10.4
58307;BMP280;44116;50.884;4.768;2022-11-15T02:07:30;100490.0;;;10.4
58307;BMP280;44116;50.884;4.768;2022-11-15T02:09:30;100490.0;;;10.5
58307;BMP280;44116;50.884;4.768;2022-11-15T02:11:29;100490.0;;;10.5
58307;BMP280;44116;50.884;4.768;2022-11-15T02:13:29;100480.0;;;10.4
58307;BMP280;44116;50.884;4.768;2022-11-15T02:15:30;100480.0;;;10.5
58307;BMP280;44116;50.884;4.768;2022-11-15T02:17:34;100480.0;;;10.5
58307;BMP280;44116;50.884;4.768;2022-11-15T02:21:29;100470.0;;;10.5
58307;BMP280;44116;50.884;4.768;2022-11-15T02:23:35;100470.0;;;10.5
58307;BMP280;44116;50.884;4.768;2022-11-15T02:27:36;100470.0;;;10.5
58307;BMP280;44116;50.884;4.768;2022-11-15T02:29:30;100460.0;;;10.5
58307;BMP280;44116;50.884;4.768;2022-11-15T02:33:30;100460.0;;;10.5
58307;BMP280;44116;50.884;4.768;2022-11-15T02:37:37;100450.0;;;10.5
58307;BMP280;44116;50.884;4.768;2022-11-15T02:39:27;100450.0;;;10.4
58307;BMP280;44116;50.884;4.768;2022-11-15T02:41:27;100450.0;;;10.4
58307;BMP280;44116;50.884;4.768;2022-11-15T02:43:27;100450.0;;;10.4
58307;BMP280;44116;50.884;4.768;2022-11-15T02:45:27;100450.0;;;10.4
58307;BMP280;44116;50.884;4.768;2022-11-15T02:47:25;100450.0;;;10.4
58307;BMP280;44116;50.884;4.768;2022-11-15T02:49:25;100450.0;;;10.4
58307;BMP280;44116;50.884;4.768;2022-11-15T02:51:24;100440.0;;;10.4
58307;BMP280;44116;50.884;4.768;2022-11-15T02:55:26;100440.0;;;10.3
58307;BMP280;44116;50.884;4.768;2022-11-15T02:57:27;100440.0;;;10.3
58307;BMP280;44116;50.884;4.768;2022-11-15T02:59:29;100440.0;;;10.3
58307;BMP280;44116;50.884;4.768;2022-11-15T03:01:26;100430.0;;;10.3
58307;BMP280;44116;50.884;4.768;2022-11-15T03:05:24;100430.0;;;10.4
58307;BMP280;44116;50.884;4.768;2022-11-15T03:07:24;100430.0;;;10.3
58307;BMP280;44116;50.884;4.768;2022-11-15T03:09:24;100430.0;;;10.3
58307;BMP280;44116;50.884;4.768;2022-11-15T03:11:22;100420.0;;;10.2
58307;BMP280;44116;50.884;4.768;2022-11-15T03:13:24;100420.0;;;10.2
58307;BMP280;44116;50.884;4.768;2022-11-15T03:15:23;100420.0;;;10.3
58307;BMP280;44116;50.884;4.768;2022-11-15T03:17:23;100420.0;;;10.3
58307;BMP280;44116;50.884;4.768;2022-11-15T03:19:22;100420.0;;;10.3
58307;BMP280;44116;50.884;4.768;2022-11-15T03:21:21;100420.0;;;10.3
58307;BMP280;44116;50.884;4.768;2022-11-15T03:23:20;100420.0;;;10.4
58307;BMP280;44116;50.884;4.768;2022-11-15T03:25:20;100420.0;;;10.3
58307;BMP280;44116;50.884;4.768;2022-11-15T03:27:21;100420.0;;;10.4
58307;BMP280;44116;50.884;4.768;2022-11-15T03:29:22;100420.0;;;10.3
58307;BMP280;44116;50.884;4.768;2022-11-15T03:31:20;100410.0;;;10.4
58307;BMP280;44116;50.884;4.768;2022-11-15T03:33:19;100420.0;;;10.4
58307;BMP280;44116;50.884;4.768;2022-11-15T03:35:20;100420.0;;;10.3
58307;BMP280;44116;50.884;4.768;2022-11-15T03:37:20;100430.0;;;10.2
58307;BMP280;44116;50.884;4.768;2022-11-15T03:39:19;100420.0;;;10.2
58307;BMP280;44116;50.884;4.768;2022-11-15T03:41:20;100420.0;;;10.3
58307;BMP280;44116;50.884;4.768;2022-11-15T03:45:19;100420.0;;;10.2
58307;BMP280;44116;50.884;4.768;2022-11-15T03:47:19;100420.0;;;10.2
58307;BMP280;44116;50.884;4.768;2022-11-15T03:49:19;100430.0;;;10.2
58307;BMP280;44116;50.884;4.768;2022-11-15T03:51:17;100430.0;;;10.1
58307;BMP280;44116;50.884;4.768;2022-11-15T03:53:17;100430.0;;;10.2
58307;BMP280;44116;50.884;4.768;2022-11-15T03:55:17;100430.0;;;10.2
58307;BMP280;44116;50.884;4.768;2022-11-15T03:57:16;100430.0;;;10.1
58307;BMP280;44116;50.884;4.768;2022-11-15T03:59:16;100430.0;;;10.1
58307;BMP280;44116;50.884;4.768;2022-11-15T04:01:16;100430.0;;;10.2
58307;BMP280;44116;50.884;4.768;2022-11-15T04:03:16;100430.0;;;10.1
58307;BMP280;44116;50.884;4.768;2022-11-15T04:05:16;100430.0;;;10.1
58307;BMP280;44116;50.884;4.768;2022-11-15T04:07:15;100430.0;;;10.1
58307;BMP280;44116;50.884;4.768;2022-11-15T04:09:15;100430.0;;;10.1
58307;BMP280;44116;50.884;4.768;2022-11-15T04:11:15;100430.0;;;10.1
58307;BMP280;44116;50.884;4.768;2022-11-15T04:13:14;100430.0;;;10.0
58307;BMP280;44116;50.884;4.768;2022-11-15T04:15:15;100430.0;;;10.0
58307;BMP280;44116;50.884;4.768;2022-11-15T04:17:14;100430.0;;;10.0
58307;BMP280;44116;50.884;4.768;2022-11-15T04:19:14;100440.0;;;10.0
58307;BMP280;44116;50.884;4.768;2022-11-15T04:21:13;100440.0;;;10.0
58307;BMP280;44116;50.884;4.768;2022-11-15T04:23:14;100440.0;;;10.0
58307;BMP280;44116;50.884;4.768;2022-11-15T04:25:13;100440.0;;;10.0
58307;BMP280;44116;50.884;4.768;2022-11-15T04:27:13;100440.0;;;10.0
58307;BMP280;44116;50.884;4.768;2022-11-15T04:29:12;100440.0;;;9.9
58307;BMP280;44116;50.884;4.768;2022-11-15T04:31:12;100440.0;;;10.0
58307;BMP280;44116;50.884;4.768;2022-11-15T04:33:12;100440.0;;;9.9
58307;BMP280;44116;50.884;4.768;2022-11-15T04:35:12;100440.0;;;10.0
58307;BMP280;44116;50.884;4.768;2022-11-15T04:37:12;100440.0;;;9.9
58307;BMP280;44116;50.884;4.768;2022-11-15T04:39:11;100440.0;;;9.9
58307;BMP280;44116;50.884;4.768;2022-11-15T04:41:11;100450.0;;;9.8
58307;BMP280;44116;50.884;4.768;2022-11-15T04:43:11;100440.0;;;9.9
58307;BMP280;44116;50.884;4.768;2022-11-15T04:45:11;100440.0;;;9.9
58307;BMP280;44116;50.884;4.768;2022-11-15T04:47:11;100440.0;;;9.8
58307;BMP280;44116;50.884;4.768;2022-11-15T04:51:10;100450.0;;;9.7
58307;BMP280;44116;50.884;4.768;2022-11-15T04:53:10;100440.0;;;9.7
58307;BMP280;44116;50.884;4.768;2022-11-15T04:57:09;100440.0;;;9.7
58307;BMP280;44116;50.884;4.768;2022-11-15T04:59:09;100440.0;;;9.7
58307;BMP280;44116;50.884;4.768;2022-11-15T05:01:09;100440.0;;;9.6
58307;BMP280;44116;50.884;4.768;2022-11-15T05:05:08;100440.0;;;9.5
58307;BMP280;44116;50.884;4.768;2022-11-15T05:07:08;100440.0;;;9.6
58307;BMP280;44116;50.884;4.768;2022-11-15T05:09:08;100440.0;;;9.5
58307;BMP280;44116;50.884;4.768;2022-11-15T05:11:07;100440.0;;;9.5
58307;BMP280;44116;50.884;4.768;2022-11-15T05:13:07;100430.0;;;9.4
58307;BMP280;44116;50.884;4.768;2022-11-15T05:15:07;100440.0;;;9.4
58307;BMP280;44116;50.884;4.768;2022-11-15T05:17:07;100440.0;;;9.4
58307;BMP280;44116;50.884;4.768;2022-11-15T05:19:07;100440.0;;;9.3
58307;BMP280;44116;50.884;4.768;2022-11-15T05:21:07;100440.0;;;9.3
58307;BMP280;44116;50.884;4.768;2022-11-15T05:23:06;100440.0;;;9.3
58307;BMP280;44116;50.884;4.768;2022-11-15T05:25:06;100440.0;;;9.4
58307;BMP280;44116;50.884;4.768;2022-11-15T05:27:05;100440.0;;;9.3
58307;BMP280;44116;50.884;4.768;2022-11-15T05:29:05;100430.0;;;9.3
58307;BMP280;44116;50.884;4.768;2022-11-15T05:31:05;100440.0;;;9.3
58307;BMP280;44116;50.884;4.768;2022-11-15T05:33:04;100440.0;;;9.4
58307;BMP280;44116;50.884;4.768;2022-11-15T05:35:05;100440.0;;;9.3
58307;BMP280;44116;50.884;4.768;2022-11-15T05:37:04;100440.0;;;9.3
58307;BMP280;44116;50.884;4.768;2022-11-15T05:39:05;100440.0;;;9.4
58307;BMP280;44116;50.884;4.768;2022-11-15T05:41:03;100440.0;;;9.3
58307;BMP280;44116;50.884;4.768;2022-11-15T05:43:03;100430.0;;;9.4
58307;BMP280;44116;50.884;4.768;2022-11-15T05:45:04;100430.0;;;9.3
58307;BMP280;44116;50.884;4.768;2022-11-15T05:47:03;100440.0;;;9.2
58307;BMP280;44116;50.884;4.768;2022-11-15T05:49:03;100440.0;;;9.2
58307;BMP280;44116;50.884;4.768;2022-11-15T05:51:02;100440.0;;;9.1
58307;BMP280;44116;50.884;4.768;2022-11-15T05:53:02;100440.0;;;9.0
58307;BMP280;44116;50.884;4.768;2022-11-15T05:55:02;100440.0;;;9.0
58307;BMP280;44116;50.884;4.768;2022-11-15T05:57:01;100440.0;;;8.9
58307;BMP280;44116;50.884;4.768;2022-11-15T05:59:01;100450.0;;;8.8
58307;BMP280;44116;50.884;4.768;2022-11-15T06:01:01;100450.0;;;8.7
58307;BMP280;44116;50.884;4.768;2022-11-15T06:03:00;100450.0;;;8.7
58307;BMP280;44116;50.884;4.768;2022-11-15T06:07:00;100450.0;;;8.7
58307;BMP280;44116;50.884;4.768;2022-11-15T06:09:00;100450.0;;;8.7
58307;BMP280;44116;50.884;4.768;2022-11-15T06:11:03;100450.0;;;8.7
58307;BMP280;44116;50.884;4.768;2022-11-15T06:12:59;100440.0;;;8.6
58307;BMP280;44116;50.884;4.768;2022-11-15T06:16:58;100440.0;;;8.7
58307;BMP280;44116;50.884;4.768;2022-11-15T06:18:58;100430.0;;;8.7
58307;BMP280;44116;50.884;4.768;2022-11-15T06:20:58;100440.0;;;8.6
58307;BMP280;44116;50.884;4.768;2022-11-15T06:22:58;100440.0;;;8.6
58307;BMP280;44116;50.884;4.768;2022-11-15T06:24:57;100440.0;;;8.6
58307;BMP280;44116;50.884;4.768;2022-11-15T06:26:57;100450.0;;;8.5
58307;BMP280;44116;50.884;4.768;2022-11-15T06:28:57;100450.0;;;8.5
58307;BMP280;44116;50.884;4.768;2022-11-15T06:31:01;100450.0;;;8.5
58307;BMP280;44116;50.884;4.768;2022-11-15T06:34:56;100450.0;;;8.3
58307;BMP280;44116;50.884;4.768;2022-11-15T06:36:55;100460.0;;;8.2
58307;BMP280;44116;50.884;4.768;2022-11-15T06:38:56;100450.0;;;8.2
58307;BMP280;44116;50.884;4.768;2022-11-15T06:40:55;100450.0;;;8.2
58307;BMP280;44116;50.884;4.768;2022-11-15T06:42:57;100450.0;;;8.2
58307;BMP280;44116;50.884;4.768;2022-11-15T06:44:54;100450.0;;;8.1
58307;BMP280;44116;50.884;4.768;2022-11-15T06:46:54;100440.0;;;8.2
58307;BMP280;44116;50.884;4.768;2022-11-15T06:48:54;100440.0;;;8.3
58307;BMP280;44116;50.884;4.768;2022-11-15T06:50:54;100440.0;;;8.2
58307;BMP280;44116;50.884;4.768;2022-11-15T06:52:53;100440.0;;;8.3
58307;BMP280;44116;50.884;4.768;2022-11-15T06:54:53;100440.0;;;8.1
58307;BMP280;44116;50.884;4.768;2022-11-15T06:56:52;100430.0;;;8.2
58307;BMP280;44116;50.884;4.768;2022-11-15T06:58:52;100440.0;;;8.0
58307;BMP280;44116;50.884;4.768;2022-11-15T07:00:52;100440.0;;;8.0
58307;BMP280;44116;50.884;4.768;2022-11-15T07:02:51;100440.0;;;8.0
58307;BMP280;44116;50.884;4.768;2022-11-15T07:04:51;100440.0;;;7.9
58307;BMP280;44116;50.884;4.768;2022-11-15T07:06:51;100440.0;;;7.9
58307;BMP280;44116;50.884;4.768;2022-11-15T07:08:51;100450.0;;;7.8
58307;BMP280;44116;50.884;4.768;2022-11-15T07:10:50;100450.0;;;7.7
58307;BMP280;44116;50.884;4.768;2022-11-15T07:12:50;100460.0;;;7.8
58307;BMP280;44116;50.884;4.768;2022-11-15T07:14:50;100460.0;;;7.8
58307;BMP280;44116;50.884;4.768;2022-11-15T07:18:49;100470.0;;;7.9
58307;BMP280;44116;50.884;4.768;2022-11-15T07:20:49;100470.0;;;7.9
58307;BMP280;44116;50.884;4.768;2022-11-15T07:22:49;100470.0;;;7.9
58307;BMP280;44116;50.884;4.768;2022-11-15T07:24:48;100470.0;;;8.1
58307;BMP280;44116;50.884;4.768;2022-11-15T07:26:48;100470.0;;;7.9
58307;BMP280;44116;50.884;4.768;2022-11-15T07:28:47;100470.0;;;7.9
58307;BMP280;44116;50.884;4.768;2022-11-15T07:32:47;100470.0;;;7.8
58307;BMP280;44116;50.884;4.768;2022-11-15T07:38:46;100470.0;;;7.9
58307;BMP280;44116;50.884;4.768;2022-11-15T07:40:46;100460.0;;;7.9
58307;BMP280;44116;50.884;4.768;2022-11-15T07:42:45;100460.0;;;8.0
58307;BMP280;44116;50.884;4.768;2022-11-15T07:44:45;100460.0;;;8.0
58307;BMP280;44116;50.884;4.768;2022-11-15T07:46:45;100460.0;;;7.9
58307;BMP280;44116;50.884;4.768;2022-11-15T07:48:44;100460.0;;;7.9
58307;BMP280;44116;50.884;4.768;2022-11-15T07:50:44;100460.0;;;7.9
58307;BMP280;44116;50.884;4.768;2022-11-15T07:52:44;100460.0;;;7.9
58307;BMP280;44116;50.884;4.768;2022-11-15T07:54:43;100460.0;;;7.9
58307;BMP280;44116;50.884;4.768;2022-11-15T07:56:43;100470.0;;;7.9
58307;BMP280;44116;50.884;4.768;2022-11-15T08:00:42;100470.0;;;7.9
58307;BMP280;44116;50.884;4.768;2022-11-15T08:02:42;100460.0;;;7.8
58307;BMP280;44116;50.884;4.768;2022-11-15T08:04:42;100460.0;;;7.8
58307;BMP280;44116;50.884;4.768;2022-11-15T08:06:41;100460.0;;;7.9
58307;BMP280;44116;50.884;4.768;2022-11-15T08:08:41;100460.0;;;7.9
58307;BMP280;44116;50.884;4.768;2022-11-15T08:10:41;100470.0;;;7.9
58307;BMP280;44116;50.884;4.768;2022-11-15T08:12:40;100460.0;;;7.9
58307;BMP280;44116;50.884;4.768;2022-11-15T08:14:40;100450.0;;;7.9
58307;BMP280;44116;50.884;4.768;2022-11-15T08:16:40;100450.0;;;8.0
58307;BMP280;44116;50.884;4.768;2022-11-15T08:18:40;100450.0;;;8.1
58307;BMP280;44116;50.884;4.768;2022-11-15T08:20:39;100450.0;;;8.1
58307;BMP280;44116;50.884;4.768;2022-11-15T08:22:39;100440.0;;;8.2
58307;BMP280;44116;50.884;4.768;2022-11-15T08:24:38;100450.0;;;8.2
58307;BMP280;44116;50.884;4.768;2022-11-15T08:26:38;100440.0;;;8.2
58307;BMP280;44116;50.884;4.768;2022-11-15T08:28:38;100440.0;;;8.4
58307;BMP280;44116;50.884;4.768;2022-11-15T08:30:38;100440.0;;;8.4
58307;BMP280;44116;50.884;4.768;2022-11-15T08:32:37;100440.0;;;8.4
58307;BMP280;44116;50.884;4.768;2022-11-15T08:34:37;100430.0;;;8.4
58307;BMP280;44116;50.884;4.768;2022-11-15T08:36:37;100430.0;;;8.5
58307;BMP280;44116;50.884;4.768;2022-11-15T08:40:36;100430.0;;;8.5
58307;BMP280;44116;50.884;4.768;2022-11-15T08:42:36;100430.0;;;8.5
58307;BMP280;44116;50.884;4.768;2022-11-15T08:46:36;100420.0;;;8.6
58307;BMP280;44116;50.884;4.768;2022-11-15T08:48:35;100420.0;;;8.6
58307;BMP280;44116;50.884;4.768;2022-11-15T08:50:34;100410.0;;;8.6
58307;BMP280;44116;50.884;4.768;2022-11-15T08:52:34;100410.0;;;8.6
58307;BMP280;44116;50.884;4.768;2022-11-15T08:54:34;100410.0;;;8.6
58307;BMP280;44116;50.884;4.768;2022-11-15T08:56:33;100420.0;;;8.7
58307;BMP280;44116;50.884;4.768;2022-11-15T08:58:33;100420.0;;;8.7
58307;BMP280;44116;50.884;4.768;2022-11-15T09:00:33;100410.0;;;8.8
58307;BMP280;44116;50.884;4.768;2022-11-15T09:02:32;100410.0;;;8.7
58307;BMP280;44116;50.884;4.768;2022-11-15T09:04:32;100400.0;;;8.8
58307;BMP280;44116;50.884;4.768;2022-11-15T09:08:31;100390.0;;;8.9
58307;BMP280;44116;50.884;4.768;2022-11-15T09:10:31;100390.0;;;8.9
58307;BMP280;44116;50.884;4.768;2022-11-15T09:12:31;100390.0;;;9.0
58307;BMP280;44116;50.884;4.768;2022-11-15T09:14:31;100390.0;;;8.9
58307;BMP280;44116;50.884;4.768;2022-11-15T09:16:30;100380.0;;;8.9
58307;BMP280;44116;50.884;4.768;2022-11-15T09:20:29;100390.0;;;8.9
58307;BMP280;44116;50.884;4.768;2022-11-15T09:22:29;100390.0;;;9.0
58307;BMP280;44116;50.884;4.768;2022-11-15T09:24:29;100390.0;;;9.1
58307;BMP280;44116;50.884;4.768;2022-11-15T09:30:28;100380.0;;;9.2
58307;BMP280;44116;50.884;4.768;2022-11-15T09:32:28;100370.0;;;9.4
58307;BMP280;44116;50.884;4.768;2022-11-15T09:34:27;100370.0;;;9.4
58307;BMP280;44116;50.884;4.768;2022-11-15T09:36:27;100360.0;;;9.4
58307;BMP280;44116;50.884;4.768;2022-11-15T09:38:27;100360.0;;;9.4
58307;BMP280;44116;50.884;4.768;2022-11-15T09:40:26;100360.0;;;9.4
58307;BMP280;44116;50.884;4.768;2022-11-15T09:42:31;100360.0;;;9.5
58307;BMP280;44116;50.884;4.768;2022-11-15T09:44:29;100360.0;;;9.5
58307;BMP280;44116;50.884;4.768;2022-11-15T09:46:28;100360.0;;;9.6
58307;BMP280;44116;50.884;4.768;2022-11-15T09:48:30;100350.0;;;9.6
58307;BMP280;44116;50.884;4.768;2022-11-15T09:50:28;100350.0;;;9.6
58307;BMP280;44116;50.884;4.768;2022-11-15T09:52:25;100350.0;;;9.6
58307;BMP280;44116;50.884;4.768;2022-11-15T09:56:26;100350.0;;;9.7
58307;BMP280;44116;50.884;4.768;2022-11-15T09:58:25;100330.0;;;9.8
58307;BMP280;44116;50.884;4.768;2022-11-15T10:00:25;100330.0;;;9.9
58307;BMP280;44116;50.884;4.768;2022-11-15T10:02:29;100330.0;;;9.9
58307;BMP280;44116;50.884;4.768;2022-11-15T10:04:23;100330.0;;;9.9
58307;BMP280;44116;50.884;4.768;2022-11-15T10:06:23;100320.0;;;10.1
58307;BMP280;44116;50.884;4.768;2022-11-15T10:08:25;100320.0;;;10.1
58307;BMP280;44116;50.884;4.768;2022-11-15T10:10:24;100310.0;;;10.1
58307;BMP280;44116;50.884;4.768;2022-11-15T10:12:22;100310.0;;;10.1
58307;BMP280;44116;50.884;4.768;2022-11-15T10:16:28;100290.0;;;10.1
58307;BMP280;44116;50.884;4.768;2022-11-15T10:18:22;100290.0;;;10.2
58307;BMP280;44116;50.884;4.768;2022-11-15T10:20:21;100280.0;;;10.0
58307;BMP280;44116;50.884;4.768;2022-11-15T10:22:24;100280.0;;;10.1
58307;BMP280;44116;50.884;4.768;2022-11-15T10:26:20;100280.0;;;10.3
58307;BMP280;44116;50.884;4.768;2022-11-15T10:28:21;100270.0;;;10.3
58307;BMP280;44116;50.884;4.768;2022-11-15T10:30:19;100270.0;;;10.4
58307;BMP280;44116;50.884;4.768;2022-11-15T10:34:19;100250.0;;;10.3
58307;BMP280;44116;50.884;4.768;2022-11-15T10:36:20;100240.0;;;10.3
58307;BMP280;44116;50.884;4.768;2022-11-15T10:40:19;100230.0;;;10.2
58307;BMP280;44116;50.884;4.768;2022-11-15T10:42:18;100220.0;;;10.3
58307;BMP280;44116;50.884;4.768;2022-11-15T10:44:19;100220.0;;;10.4
58307;BMP280;44116;50.884;4.768;2022-11-15T10:46:18;100210.0;;;10.4
58307;BMP280;44116;50.884;4.768;2022-11-15T10:48:22;100200.0;;;10.5
58307;BMP280;44116;50.884;4.768;2022-11-15T10:52:17;100190.0;;;10.4
58307;BMP280;44116;50.884;4.768;2022-11-15T10:54:18;100190.0;;;10.5
58307;BMP280;44116;50.884;4.768;2022-11-15T10:56:16;100180.0;;;10.5
58307;BMP280;44116;50.884;4.768;2022-11-15T10:58:20;100190.0;;;10.6
58307;BMP280;44116;50.884;4.768;2022-11-15T11:00:26;100190.0;;;10.6
58307;BMP280;44116;50.884;4.768;2022-11-15T11:02:26;100180.0;;;10.8
58307;BMP280;44116;50.884;4.768;2022-11-15T11:06:15;100160.0;;;10.6
58307;BMP280;44116;50.884;4.768;2022-11-15T11:08:23;100150.0;;;10.7
58307;BMP280;44116;50.884;4.768;2022-11-15T11:10:17;100150.0;;;10.7
58307;BMP280;44116;50.884;4.768;2022-11-15T11:12:14;100140.0;;;10.7
58307;BMP280;44116;50.884;4.768;2022-11-15T11:14:17;100140.0;;;10.8
58307;BMP280;44116;50.884;4.768;2022-11-15T11:16:20;100130.0;;;11.0
58307;BMP280;44116;50.884;4.768;2022-11-15T11:18:15;100120.0;;;11.0
58307;BMP280;44116;50.884;4.768;2022-11-15T11:20:16;100110.0;;;10.9
58307;BMP280;44116;50.884;4.768;2022-11-15T11:24:14;100100.0;;;10.8
58307;BMP280;44116;50.884;4.768;2022-11-15T11:28:20;100090.0;;;10.9
58307;BMP280;44116;50.884;4.768;2022-11-15T11:30:14;100090.0;;;10.8
58307;BMP280;44116;50.884;4.768;2022-11-15T11:32:19;100090.0;;;10.9
58307;BMP280;44116;50.884;4.768;2022-11-15T11:34:13;100080.0;;;11.0
58307;BMP280;44116;50.884;4.768;2022-11-15T11:36:15;100090.0;;;11.1
58307;BMP280;44116;50.884;4.768;2022-11-15T11:38:15;100080.0;;;11.0
58307;BMP280;44116;50.884;4.768;2022-11-15T11:42:10;100070.0;;;11.2
58307;BMP280;44116;50.884;4.768;2022-11-15T11:44:16;100070.0;;;11.3
58307;BMP280;44116;50.884;4.768;2022-11-15T11:46:13;100060.0;;;11.3
58307;BMP280;44116;50.884;4.768;2022-11-15T11:48:11;100060.0;;;11.4
58307;BMP280;44116;50.884;4.768;2022-11-15T11:50:10;100060.0;;;11.4
58307;BMP280;44116;50.884;4.768;2022-11-15T11:52:10;100050.0;;;11.4
58307;BMP280;44116;50.884;4.768;2022-11-15T11:54:11;100050.0;;;11.4
58307;BMP280;44116;50.884;4.768;2022-11-15T11:56:14;100050.0;;;11.4
58307;BMP280;44116;50.884;4.768;2022-11-15T12:00:13;100040.0;;;11.4
58307;BMP280;44116;50.884;4.768;2022-11-15T12:02:11;100030.0;;;11.4
58307;BMP280;44116;50.884;4.768;2022-11-15T12:04:09;100020.0;;;11.5
58307;BMP280;44116;50.884;4.768;2022-11-15T12:06:10;100010.0;;;11.5
58307;BMP280;44116;50.884;4.768;2022-11-15T12:08:14;100010.0;;;11.5
58307;BMP280;44116;50.884;4.768;2022-11-15T12:10:12;100000.0;;;11.5
58307;BMP280;44116;50.884;4.768;2022-11-15T12:12:07;100000.0;;;11.6
58307;BMP280;44116;50.884;4.768;2022-11-15T12:14:16;100000.0;;;11.6
58307;BMP280;44116;50.884;4.768;2022-11-15T12:16:07;99990.0;;;11.6
58307;BMP280;44116;50.884;4.768;2022-11-15T12:18:07;99980.0;;;11.7
58307;BMP280;44116;50.884;4.768;2022-11-15T12:20:06;99980.0;;;11.6
58307;BMP280;44116;50.884;4.768;2022-11-15T12:22:06;99970.0;;;11.6
58307;BMP280;44116;50.884;4.768;2022-11-15T12:26:06;99970.0;;;11.7
58307;BMP280;44116;50.884;4.768;2022-11-15T12:28:06;99970.0;;;11.7
58307;BMP280;44116;50.884;4.768;2022-11-15T12:30:07;99960.0;;;11.7
58307;BMP280;44116;50.884;4.768;2022-11-15T12:32:03;99960.0;;;11.6
58307;BMP280;44116;50.884;4.768;2022-11-15T12:34:04;99960.0;;;11.8
58307;BMP280;44116;50.884;4.768;2022-11-15T12:36:04;99960.0;;;11.6
58307;BMP280;44116;50.884;4.768;2022-11-15T12:40:04;99950.0;;;11.7
58307;BMP280;44116;50.884;4.768;2022-11-15T12:44:02;99950.0;;;11.7
58307;BMP280;44116;50.884;4.768;2022-11-15T12:46:03;99940.0;;;11.7
58307;BMP280;44116;50.884;4.768;2022-11-15T12:50:01;99920.0;;;11.6
58307;BMP280;44116;50.884;4.768;2022-11-15T12:52:04;99920.0;;;11.6
58307;BMP280;44116;50.884;4.768;2022-11-15T12:54:03;99920.0;;;11.7
58307;BMP280;44116;50.884;4.768;2022-11-15T12:56:09;99920.0;;;11.7
58307;BMP280;44116;50.884;4.768;2022-11-15T13:00:00;99910.0;;;11.6
58307;BMP280;44116;50.884;4.768;2022-11-15T13:02:00;99910.0;;;11.6
58307;BMP280;44116;50.884;4.768;2022-11-15T13:06:01;99900.0;;;11.6
58307;BMP280;44116;50.884;4.768;2022-11-15T13:07:59;99900.0;;;11.6
58307;BMP280;44116;50.884;4.768;2022-11-15T13:09:59;99900.0;;;11.7
58307;BMP280;44116;50.884;4.768;2022-11-15T13:11:59;99890.0;;;11.8
58307;BMP280;44116;50.884;4.768;2022-11-15T13:13:58;99880.0;;;11.9